Time;durP1;ratioP1;P1;durP2;ratioP2;P2;SDS_P1;SDS_P2;PMS_P1;PMS_P2;Temp;Humidity;BMP_temperature;BMP_pressure;BME280_temperature;BME280_humidity;BME280_pressure;Samples;Min_cycle;Max_cycle;Signal;HPM_P1;HPM_P2
2023/05/13 00:00:50;;;;;;;15.38;12.90;;;10.70;99.90;;;;;;5012069;28;20045;-40
2023/05/13 00:03:16;;;;;;;13.88;12.43;;;10.70;99.90;;;;;;5012111;28;20098;-40
2023/05/13 00:05:41;;;;;;;14.95;13.45;;;10.70;99.90;;;;;;5012700;28;20064;-47
2023/05/13 00:08:07;;;;;;;14.15;12.27;;;10.70;99.90;;;;;;5007982;28;20499;-48
2023/05/13 00:10:34;;;;;;;18.02;12.43;;;10.70;99.90;;;;;;5012767;28;20506;-41
2023/05/13 00:13:00;;;;;;;14.98;12.20;;;10.70;99.90;;;;;;5012548;28;20041;-39
2023/05/13 00:15:26;;;;;;;13.63;12.27;;;10.80;99.90;;;;;;5010458;28;20052;-41
2023/05/13 00:17:52;;;;;;;13.88;12.35;;;10.80;99.90;;;;;;5011527;28;20058;-40
2023/05/13 00:20:18;;;;;;;13.73;12.50;;;10.80;99.90;;;;;;5028911;28;20041;-37
2023/05/13 00:22:44;;;;;;;17.30;13.07;;;10.80;99.90;;;;;;5032675;28;20053;-41
2023/05/13 00:25:10;;;;;;;15.35;13.90;;;10.80;99.90;;;;;;5032733;28;20083;-35
2023/05/13 00:27:35;;;;;;;14.45;13.05;;;10.80;99.90;;;;;;5055193;28;20380;-40
2023/05/13 00:30:01;;;;;;;16.15;13.93;;;10.80;99.90;;;;;;5027829;28;20056;-47
2023/05/13 00:32:27;;;;;;;15.93;14.30;;;10.80;99.90;;;;;;5010980;28;20073;-43
2023/05/13 00:34:52;;;;;;;15.73;13.57;;;10.70;99.90;;;;;;5001349;28;20106;-37
2023/05/13 00:37:18;;;;;;;15.68;14.02;;;10.70;99.90;;;;;;5031060;28;20052;-44
2023/05/13 00:39:44;;;;;;;14.43;12.93;;;10.60;99.90;;;;;;5032437;28;20460;-38
2023/05/13 00:42:11;;;;;;;17.02;14.15;;;10.60;99.90;;;;;;5018993;28;20133;-39
2023/05/13 00:44:37;;;;;;;16.38;14.73;;;10.50;99.90;;;;;;5012299;28;20057;-41
2023/05/13 00:47:07;;;;;;;15.77;13.70;;;10.50;99.90;;;;;;5011139;28;20513;-42
2023/05/13 00:49:33;;;;;;;15.68;13.90;;;10.40;99.90;;;;;;5012655;28;20073;-43
2023/05/13 00:51:59;;;;;;;16.02;14.52;;;10.40;99.90;;;;;;5012684;28;20053;-42
2023/05/13 00:54:25;;;;;;;15.75;14.23;;;10.30;99.90;;;;;;5011724;28;20041;-39
2023/05/13 00:56:55;;;;;;;16.27;14.68;;;10.30;99.90;;;;;;5022225;28;20068;-35
2023/05/13 00:59:24;;;;;;;17.48;14.50;;;10.30;99.90;;;;;;5031887;28;20053;-46
2023/05/13 01:02:13;;;;;;;15.85;14.25;;;10.20;99.90;;;;;;5030511;28;20097;-39
2023/05/13 01:05:00;;;;;;;20.05;14.18;;;10.20;99.90;;;;;;5031551;28;20128;-41
2023/05/13 01:07:52;;;;;;;15.57;13.93;;;10.20;99.90;;;;;;5010401;28;20067;-35
2023/05/13 01:10:43;;;;;;;15.00;13.70;;;10.10;99.90;;;;;;5026653;28;20383;-35
2023/05/13 01:13:12;;;;;;;17.95;15.20;;;10.10;99.90;;;;;;5031892;28;20148;-43
2023/05/13 01:16:02;;;;;;;15.98;14.52;;;10.00;99.90;;;;;;5030366;28;20053;-46
2023/05/13 01:18:40;;;;;;;16.42;14.73;;;10.00;99.90;;;;;;5029628;28;20053;-35
2023/05/13 01:21:07;;;;;;;16.20;14.55;;;10.00;99.90;;;;;;5021122;28;20436;-40
2023/05/13 01:23:32;;;;;;;17.05;14.60;;;9.90;99.90;;;;;;5029222;28;20056;-39
2023/05/13 01:25:58;;;;;;;16.10;14.52;;;9.90;99.90;;;;;;5031555;28;20065;-40
2023/05/13 01:28:24;;;;;;;22.17;15.75;;;9.90;99.90;;;;;;5030975;28;20049;-37
2023/05/13 01:30:50;;;;;;;21.48;15.85;;;9.90;99.90;;;;;;5064458;28;20044;-40
2023/05/13 01:33:16;;;;;;;18.23;16.45;;;9.90;99.90;;;;;;5018674;28;20053;-39
2023/05/13 01:35:44;;;;;;;18.10;16.10;;;9.90;99.90;;;;;;5011773;28;20049;-41
2023/05/13 01:38:10;;;;;;;18.10;16.33;;;9.80;99.90;;;;;;5030642;28;20519;-45
2023/05/13 01:40:37;;;;;;;19.63;16.33;;;9.90;99.90;;;;;;5035600;28;20053;-41
2023/05/13 01:43:02;;;;;;;18.98;16.70;;;9.80;99.90;;;;;;5018073;28;20049;-40
2023/05/13 01:45:29;;;;;;;19.30;17.33;;;9.90;99.90;;;;;;5035178;28;20104;-43
2023/05/13 01:47:55;;;;;;;18.90;16.52;;;9.80;99.90;;;;;;5033691;28;20052;-42
2023/05/13 01:50:20;;;;;;;21.52;16.90;;;9.90;99.90;;;;;;5034836;28;20402;-43
2023/05/13 01:52:46;;;;;;;19.17;17.15;;;9.80;99.90;;;;;;5034714;28;20156;-38
2023/05/13 01:55:13;;;;;;;19.25;17.25;;;9.80;99.90;;;;;;5024361;28;20045;-44
2023/05/13 01:57:39;;;;;;;19.10;17.23;;;9.80;99.90;;;;;;5014004;28;20057;-36
2023/05/13 02:00:05;;;;;;;20.63;17.10;;;9.80;99.90;;;;;;5015543;28;20045;-49
2023/05/13 02:02:31;;;;;;;22.98;18.63;;;9.80;99.90;;;;;;5014229;28;20060;-44
2023/05/13 02:04:56;;;;;;;22.08;18.90;;;9.80;99.90;;;;;;5033574;28;20468;-46
2023/05/13 02:07:22;;;;;;;19.80;17.90;;;9.80;99.90;;;;;;5024425;28;20049;-44
2023/05/13 02:09:47;;;;;;;20.33;18.30;;;9.80;99.90;;;;;;5015085;28;20438;-38
2023/05/13 02:12:13;;;;;;;20.92;18.65;;;9.80;99.90;;;;;;5014456;28;20055;-38
2023/05/13 02:14:39;;;;;;;19.38;17.67;;;9.90;99.90;;;;;;5014746;28;20064;-43
2023/05/13 02:17:04;;;;;;;21.05;18.73;;;9.80;99.90;;;;;;5013994;28;20056;-42
2023/05/13 02:19:30;;;;;;;19.90;17.98;;;9.80;99.90;;;;;;5015484;28;20124;-36
2023/05/13 02:21:56;;;;;;;20.60;18.58;;;9.80;99.90;;;;;;5013501;28;20439;-41
2023/05/13 02:24:22;;;;;;;22.40;18.00;;;9.80;99.90;;;;;;5015338;28;20045;-45
2023/05/13 02:26:47;;;;;;;22.23;19.98;;;9.70;99.90;;;;;;5013973;28;20624;-47
2023/05/13 02:29:13;;;;;;;22.15;19.95;;;9.70;99.90;;;;;;5015427;28;20053;-36
2023/05/13 02:31:41;;;;;;;20.67;18.58;;;9.70;99.90;;;;;;5030140;28;20045;-38
2023/05/13 02:34:07;;;;;;;20.83;18.25;;;9.70;99.90;;;;;;5012988;28;20098;-47
2023/05/13 02:36:33;;;;;;;20.08;18.13;;;9.70;99.90;;;;;;5027553;28;20415;-36
2023/05/13 02:38:58;;;;;;;19.58;17.58;;;9.70;99.90;;;;;;5032973;28;20654;-39
2023/05/13 02:41:27;;;;;;;20.40;18.25;;;9.60;99.90;;;;;;5026351;28;20049;-46
2023/05/13 02:43:53;;;;;;;19.85;17.83;;;9.60;99.90;;;;;;5024833;28;20125;-41
2023/05/13 02:46:18;;;;;;;20.65;18.42;;;9.60;99.90;;;;;;5032957;28;20482;-39
2023/05/13 02:48:44;;;;;;;19.30;17.13;;;9.60;99.90;;;;;;5033377;28;20055;-39
2023/05/13 02:51:10;;;;;;;20.25;16.98;;;9.70;99.90;;;;;;5019897;28;20055;-42
2023/05/13 02:53:36;;;;;;;19.83;17.35;;;9.70;99.90;;;;;;5033091;28;20414;-43
2023/05/13 02:56:01;;;;;;;19.33;17.50;;;9.60;99.90;;;;;;5032940;28;20060;-39
2023/05/13 02:58:27;;;;;;;21.40;17.58;;;9.60;99.90;;;;;;5031967;28;20436;-42
2023/05/13 03:00:53;;;;;;;21.23;17.40;;;9.60;99.90;;;;;;5034052;28;20562;-45
2023/05/13 03:03:18;;;;;;;24.20;17.95;;;9.60;99.90;;;;;;5034132;28;20053;-42
2023/05/13 03:05:44;;;;;;;18.77;17.08;;;9.60;99.90;;;;;;5033716;28;20101;-44
2023/05/13 03:08:09;;;;;;;20.30;18.35;;;9.70;99.90;;;;;;5017405;28;20049;-35
2023/05/13 03:10:35;;;;;;;22.35;18.30;;;9.70;99.90;;;;;;5030230;28;20059;-43
2023/05/13 03:13:01;;;;;;;20.98;18.02;;;9.70;99.90;;;;;;5034038;28;20114;-36
2023/05/13 03:15:26;;;;;;;18.40;16.67;;;9.70;99.90;;;;;;5028694;28;20068;-36
2023/05/13 03:17:52;;;;;;;20.88;18.42;;;9.80;99.90;;;;;;5011207;28;20500;-44
2023/05/13 03:20:17;;;;;;;21.20;17.73;;;9.80;99.90;;;;;;5013474;28;20052;-47
2023/05/13 03:22:43;;;;;;;18.35;16.33;;;9.80;99.90;;;;;;5022676;28;20619;-42
2023/05/13 03:25:09;;;;;;;20.55;18.00;;;9.80;99.90;;;;;;5032314;28;20715;-36
2023/05/13 03:27:35;;;;;;;20.17;16.63;;;9.80;99.90;;;;;;5031356;28;20056;-40
2023/05/13 03:30:00;;;;;;;21.33;18.33;;;9.80;99.90;;;;;;5032593;28;20583;-36
2023/05/13 03:32:29;;;;;;;19.85;17.33;;;9.80;99.90;;;;;;5032249;28;20053;-36
2023/05/13 03:34:56;;;;;;;19.80;16.80;;;9.70;99.90;;;;;;5001674;28;20053;-45
2023/05/13 03:37:22;;;;;;;18.38;16.48;;;9.70;99.90;;;;;;5012030;28;20223;-45
2023/05/13 03:39:49;;;;;;;20.02;17.13;;;9.80;99.90;;;;;;5016528;28;20059;-40
2023/05/13 03:42:14;;;;;;;18.35;16.40;;;9.80;99.90;;;;;;5019500;28;20129;-43
2023/05/13 03:44:40;;;;;;;18.95;16.67;;;9.80;99.90;;;;;;5012986;28;20550;-39
2023/05/13 03:47:06;;;;;;;22.13;16.00;;;9.80;99.90;;;;;;5012789;28;20094;-37
2023/05/13 03:49:31;;;;;;;19.13;16.48;;;9.80;99.90;;;;;;5030465;28;20124;-41
2023/05/13 03:51:57;;;;;;;20.00;17.90;;;9.80;99.90;;;;;;5031762;28;20076;-43
2023/05/13 03:54:23;;;;;;;19.15;16.35;;;9.80;99.90;;;;;;5033052;28;20836;-41
2023/05/13 03:56:48;;;;;;;17.80;15.77;;;9.80;99.90;;;;;;5032175;28;20084;-42
2023/05/13 03:59:14;;;;;;;18.13;16.00;;;9.80;99.90;;;;;;5032706;28;20133;-36
2023/05/13 04:01:40;;;;;;;19.67;17.17;;;9.80;99.90;;;;;;5019780;28;20049;-41
2023/05/13 04:04:05;;;;;;;19.13;17.05;;;9.90;99.90;;;;;;5013973;28;20085;-36
2023/05/13 04:06:31;;;;;;;20.00;17.92;;;9.90;99.90;;;;;;5030028;28;20734;-35
2023/05/13 04:08:57;;;;;;;18.23;16.48;;;9.90;99.90;;;;;;5010262;28;20045;-46
2023/05/13 04:11:22;;;;;;;19.65;15.98;;;9.90;99.90;;;;;;5011643;28;20452;-39
2023/05/13 04:13:48;;;;;;;20.15;16.63;;;9.90;99.90;;;;;;5012907;28;20053;-42
2023/05/13 04:16:14;;;;;;;19.42;16.05;;;10.00;99.90;;;;;;5012698;28;20052;-40
2023/05/13 04:18:40;;;;;;;25.13;17.10;;;10.00;99.90;;;;;;5028134;28;20377;-38
2023/05/13 04:21:07;;;;;;;19.25;16.30;;;10.00;99.90;;;;;;5031831;28;20157;-36
2023/05/13 04:23:33;;;;;;;17.85;15.48;;;10.10;99.90;;;;;;5032434;28;20129;-40
2023/05/13 04:25:59;;;;;;;18.27;16.25;;;10.20;99.90;;;;;;5031004;28;20637;-44
2023/05/13 04:28:24;;;;;;;20.35;15.73;;;10.30;99.90;;;;;;5031940;28;20078;-43
2023/05/13 04:30:50;;;;;;;20.33;15.23;;;10.50;99.90;;;;;;5033075;28;20049;-43
2023/05/13 04:33:15;;;;;;;17.40;15.60;;;10.60;99.90;;;;;;5024494;28;20050;-36
2023/05/13 04:35:41;;;;;;;18.70;14.38;;;10.90;99.90;;;;;;5001245;28;20053;-36
2023/05/13 04:38:08;;;;;;;18.08;13.02;;;11.60;99.90;;;;;;5010919;28;20495;-48
2023/05/13 04:40:33;;;;;;;13.77;12.43;;;12.40;99.90;;;;;;5012164;28;20380;-38
2023/05/13 04:42:59;;;;;;;16.20;13.23;;;12.90;99.90;;;;;;5011460;28;20094;-42
2023/05/13 04:45:25;;;;;;;16.55;11.95;;;13.50;99.90;;;;;;5012662;28;20053;-45
2023/05/13 04:47:50;;;;;;;13.80;10.85;;;14.20;99.90;;;;;;5011024;28;20057;-40
2023/05/13 04:50:16;;;;;;;12.10;10.82;;;14.70;99.90;;;;;;5020665;28;20554;-38
2023/05/13 04:52:43;;;;;;;15.02;10.02;;;15.40;99.90;;;;;;5031283;28;20299;-45
2023/05/13 04:55:09;;;;;;;11.70;10.30;;;15.80;99.90;;;;;;5031548;28;20049;-42
2023/05/13 04:57:35;;;;;;;11.70;10.23;;;16.20;99.90;;;;;;5029341;28;20057;-42
2023/05/13 05:00:03;;;;;;;12.05;10.10;;;16.60;99.90;;;;;;5032577;28;20048;-37
2023/05/13 05:02:29;;;;;;;14.65;9.57;;;16.80;99.90;;;;;;5032124;28;20538;-38
2023/05/13 05:04:57;;;;;;;15.45;10.40;;;17.10;99.90;;;;;;5031905;28;20053;-43
2023/05/13 05:07:23;;;;;;;11.48;9.02;;;17.40;99.90;;;;;;5021425;28;20057;-47
2023/05/13 05:09:48;;;;;;;13.00;9.80;;;17.80;99.90;;;;;;5019820;28;20548;-39
2023/05/13 05:12:14;;;;;;;12.25;9.20;;;18.40;99.90;;;;;;5029971;28;20064;-44
2023/05/13 05:14:40;;;;;;;11.75;9.23;;;18.90;99.90;;;;;;5035156;28;20490;-44
2023/05/13 05:17:06;;;;;;;10.25;8.93;;;19.60;99.90;;;;;;5034095;28;20141;-42
2023/05/13 05:19:32;;;;;;;9.90;8.10;;;20.40;99.90;;;;;;5035178;28;20110;-49
2023/05/13 05:21:57;;;;;;;13.07;7.90;;;20.80;99.90;;;;;;5035071;28;20045;-42
2023/05/13 05:24:23;;;;;;;11.30;8.43;;;21.60;99.90;;;;;;5034591;28;20057;-46
2023/05/13 05:26:49;;;;;;;10.18;8.68;;;22.10;99.90;;;;;;5033692;28;20533;-41
2023/05/13 05:29:14;;;;;;;9.63;7.78;;;22.70;99.90;;;;;;5035349;28;20092;-40
2023/05/13 05:31:40;;;;;;;12.05;8.13;;;22.90;99.90;;;;;;5031126;28;20638;-44
2023/05/13 05:34:06;;;;;;;9.45;7.72;;;23.40;99.90;;;;;;5005601;28;20594;-42
2023/05/13 05:36:32;;;;;;;13.38;8.52;;;23.70;99.90;;;;;;5010137;28;20058;-55
2023/05/13 05:38:57;;;;;;;9.50;7.50;;;24.10;99.90;;;;;;5013659;28;20057;-45
2023/05/13 05:41:23;;;;;;;8.38;7.57;;;24.10;99.90;;;;;;5017772;28;20041;-49
2023/05/13 05:43:49;;;;;;;11.88;8.20;;;24.60;99.90;;;;;;5035302;28;20080;-45
2023/05/13 05:46:15;;;;;;;9.00;8.02;;;24.60;99.90;;;;;;5033839;28;20585;-44
2023/05/13 05:48:41;;;;;;;9.68;8.18;;;24.70;99.90;;;;;;5034018;28;20056;-50
2023/05/13 05:51:06;;;;;;;10.55;7.82;;;24.80;99.90;;;;;;5034499;28;20102;-43
2023/05/13 05:53:36;;;;;;;11.38;7.50;;;25.50;99.90;;;;;;5035052;28;20087;-53
2023/05/13 05:56:03;;;;;;;10.50;8.25;;;25.40;99.90;;;;;;5049750;27;20436;-54
2023/05/13 05:58:28;;;;;;;8.57;7.70;;;25.60;99.90;;;;;;5014483;28;20475;-45
2023/05/13 06:00:55;;;;;;;10.35;8.07;;;25.90;99.90;;;;;;5014533;28;20122;-46
2023/05/13 06:03:21;;;;;;;8.90;6.72;;;26.40;98.30;;;;;;5014623;28;20049;-48
2023/05/13 06:05:47;;;;;;;11.23;7.65;;;26.90;99.60;;;;;;5013949;28;20053;-49
2023/05/13 06:08:12;;;;;;;10.82;7.15;;;27.40;98.90;;;;;;5012622;28;20077;-49
2023/05/13 06:10:38;;;;;;;11.48;7.28;;;27.30;96.70;;;;;;5012709;28;20076;-42
2023/05/13 06:13:04;;;;;;;10.48;7.30;;;27.40;98.00;;;;;;5012551;28;20646;-41
2023/05/13 06:15:30;;;;;;;8.65;7.53;;;27.20;97.50;;;;;;5011335;28;20057;-39
2023/05/13 06:17:56;;;;;;;9.85;7.10;;;27.00;96.30;;;;;;5013481;28;20045;-40
2023/05/13 06:20:22;;;;;;;8.25;7.22;;;27.00;96.20;;;;;;5014533;28;20364;-51
2023/05/13 06:22:48;;;;;;;9.13;7.43;;;27.20;97.00;;;;;;5014815;28;20102;-41
2023/05/13 06:25:13;;;;;;;10.23;7.25;;;27.50;97.20;;;;;;5013864;28;20140;-46
2023/05/13 06:27:39;;;;;;;10.20;7.25;;;28.10;96.20;;;;;;5011887;27;20099;-41
2023/05/13 06:30:05;;;;;;;11.25;6.95;;;28.40;95.40;;;;;;5014605;28;20053;-45
2023/05/13 06:32:31;;;;;;;10.32;6.95;;;28.80;95.70;;;;;;5013702;28;20064;-38
2023/05/13 06:34:57;;;;;;;13.32;7.43;;;29.00;95.50;;;;;;5010078;28;20109;-48
2023/05/13 06:37:23;;;;;;;12.65;6.97;;;28.70;94.30;;;;;;5013285;28;20454;-43
2023/05/13 06:39:49;;;;;;;9.10;7.78;;;28.40;95.40;;;;;;5013674;28;20046;-49
2023/05/13 06:42:14;;;;;;;7.97;6.90;;;28.50;94.90;;;;;;5013811;28;20042;-45
2023/05/13 06:44:40;;;;;;;8.45;7.28;;;28.50;93.80;;;;;;5013171;28;20064;-39
2023/05/13 06:47:09;;;;;;;11.98;7.03;;;28.20;94.40;;;;;;5009616;28;20045;-45
2023/05/13 06:49:34;;;;;;;9.25;6.82;;;28.60;94.80;;;;;;5012781;28;20561;-44
2023/05/13 06:52:00;;;;;;;9.23;7.28;;;28.70;95.00;;;;;;5010883;28;20050;-39
2023/05/13 06:54:26;;;;;;;12.00;7.45;;;28.90;94.70;;;;;;5013713;28;20049;-45
2023/05/13 06:56:53;;;;;;;7.72;6.82;;;29.10;94.30;;;;;;5002799;28;20049;-50
2023/05/13 06:59:20;;;;;;;9.93;7.40;;;29.10;93.50;;;;;;5010200;28;20061;-48
2023/05/13 07:01:46;;;;;;;7.80;7.00;;;28.00;93.80;;;;;;5012204;28;20064;-45
2023/05/13 07:04:11;;;;;;;7.82;6.70;;;27.40;94.30;;;;;;5013607;28;20399;-38
2023/05/13 07:06:37;;;;;;;8.45;7.60;;;27.80;95.40;;;;;;5011346;28;20072;-52
2023/05/13 07:09:03;;;;;;;9.05;6.93;;;27.00;95.00;;;;;;5011710;28;20794;-43
2023/05/13 07:11:28;;;;;;;10.68;6.78;;;26.20;95.90;;;;;;5014873;28;20041;-50
2023/05/13 07:13:54;;;;;;;11.48;7.53;;;25.40;96.40;;;;;;5014039;28;20796;-40
2023/05/13 07:16:20;;;;;;;9.75;7.68;;;24.60;98.10;;;;;;5012724;28;20045;-43
2023/05/13 07:18:45;;;;;;;10.57;8.25;;;24.40;98.40;;;;;;5011843;28;20554;-38
2023/05/13 07:21:12;;;;;;;10.77;7.43;;;23.90;99.10;;;;;;5013956;28;20474;-44
2023/05/13 07:23:38;;;;;;;9.20;6.93;;;23.60;99.40;;;;;;5011109;28;20055;-54
2023/05/13 07:26:04;;;;;;;9.88;7.78;;;23.20;99.00;;;;;;5023576;28;20048;-51
2023/05/13 07:28:30;;;;;;;9.60;7.72;;;22.50;99.80;;;;;;5027682;28;20303;-44
2023/05/13 07:30:56;;;;;;;11.63;7.15;;;22.20;99.90;;;;;;5012878;28;20050;-41
2023/05/13 07:33:21;;;;;;;9.50;7.65;;;22.20;99.90;;;;;;5016191;28;20803;-42
2023/05/13 07:35:47;;;;;;;10.35;6.68;;;21.90;99.90;;;;;;5001516;28;20057;-53
2023/05/13 07:38:13;;;;;;;7.93;6.80;;;21.80;99.90;;;;;;5008905;28;20049;-46
2023/05/13 07:40:39;;;;;;;12.02;7.25;;;22.10;99.90;;;;;;5012285;28;20053;-42
2023/05/13 07:43:05;;;;;;;9.07;6.95;;;22.20;99.90;;;;;;5010769;28;20068;-47
2023/05/13 07:45:31;;;;;;;10.73;6.65;;;22.40;99.90;;;;;;5011161;28;20452;-44
2023/05/13 07:47:57;;;;;;;11.60;7.63;;;22.60;99.90;;;;;;5012980;27;20053;-49
2023/05/13 07:50:23;;;;;;;11.13;7.32;;;22.50;99.90;;;;;;5022683;28;20056;-45
2023/05/13 07:52:50;;;;;;;10.98;7.78;;;22.70;99.90;;;;;;5026725;28;20072;-44
2023/05/13 07:55:17;;;;;;;8.13;6.65;;;22.60;99.90;;;;;;5012330;28;20120;-52
2023/05/13 07:57:42;;;;;;;10.65;6.97;;;22.60;99.90;;;;;;5016803;28;20362;-48
2023/05/13 08:00:09;;;;;;;9.23;6.35;;;22.60;99.90;;;;;;5010097;28;20827;-47
2023/05/13 08:02:37;;;;;;;9.68;6.78;;;22.70;99.90;;;;;;5012386;28;20820;-45
2023/05/13 08:05:04;;;;;;;11.50;7.30;;;22.60;99.90;;;;;;5011795;28;20128;-50
2023/05/13 08:07:30;;;;;;;10.43;7.53;;;22.60;99.90;;;;;;5009620;28;20045;-47
2023/05/13 08:09:55;;;;;;;9.10;7.10;;;22.20;99.90;;;;;;4995688;28;20584;-44
2023/05/13 08:12:21;;;;;;;9.52;6.07;;;22.20;99.90;;;;;;5011038;28;20161;-44
2023/05/13 08:14:46;;;;;;;10.50;7.30;;;22.30;99.90;;;;;;5008732;28;20084;-45
2023/05/13 08:17:12;;;;;;;9.98;7.22;;;22.40;99.90;;;;;;5009558;28;20045;-51
2023/05/13 08:19:39;;;;;;;10.23;7.30;;;22.10;99.90;;;;;;5012366;28;20045;-47
2023/05/13 08:22:04;;;;;;;12.05;6.57;;;22.50;99.90;;;;;;5012769;28;20128;-43
2023/05/13 08:24:30;;;;;;;8.23;7.10;;;22.70;99.90;;;;;;5012675;28;20360;-48
2023/05/13 08:26:56;;;;;;;10.95;7.13;;;22.10;99.90;;;;;;5011332;28;20060;-41
2023/05/13 08:29:21;;;;;;;13.27;7.97;;;22.30;99.90;;;;;;5012283;28;20483;-48
2023/05/13 08:31:47;;;;;;;10.18;7.30;;;22.20;99.90;;;;;;5013419;28;20563;-49
2023/05/13 08:34:12;;;;;;;10.50;7.55;;;22.40;99.90;;;;;;5000744;28;20046;-48
2023/05/13 08:36:38;;;;;;;10.10;6.82;;;22.40;99.90;;;;;;5012211;28;20041;-41
2023/05/13 08:39:04;;;;;;;9.85;7.25;;;22.30;99.90;;;;;;5022296;28;20542;-41
2023/05/13 08:41:30;;;;;;;7.78;6.65;;;22.00;99.90;;;;;;5025313;28;20129;-48
2023/05/13 08:43:58;;;;;;;13.45;6.55;;;22.20;99.90;;;;;;5010440;28;20077;-41
2023/05/13 08:46:25;;;;;;;7.32;6.22;;;22.00;99.90;;;;;;5014736;28;20049;-45
2023/05/13 08:48:53;;;;;;;11.75;7.47;;;22.20;99.90;;;;;;5028678;28;20084;-48
2023/05/13 08:51:19;;;;;;;12.20;6.13;;;22.00;99.90;;;;;;5023706;28;20123;-51
2023/05/13 08:53:46;;;;;;;10.82;6.40;;;22.10;99.90;;;;;;5035348;28;20055;-39
2023/05/13 08:56:12;;;;;;;8.60;7.03;;;21.90;99.90;;;;;;5035032;28;20052;-53
2023/05/13 08:58:38;;;;;;;6.90;6.18;;;22.20;99.90;;;;;;5028134;28;20045;-49
2023/05/13 09:01:06;;;;;;;9.98;6.95;;;22.20;99.90;;;;;;5028025;28;20053;-48
2023/05/13 09:03:32;;;;;;;7.10;6.38;;;22.10;99.90;;;;;;5028398;28;20041;-53
2023/05/13 09:06:01;;;;;;;9.05;7.00;;;22.20;99.90;;;;;;5033443;28;20466;-47
2023/05/13 09:08:27;;;;;;;9.88;6.70;;;22.30;99.90;;;;;;5017691;28;20049;-46
2023/05/13 09:10:53;;;;;;;10.95;7.07;;;22.30;99.90;;;;;;5014781;28;20040;-46
2023/05/13 09:13:18;;;;;;;11.10;7.47;;;22.40;99.90;;;;;;5028286;28;20211;-48
2023/05/13 09:15:44;;;;;;;11.45;7.03;;;22.50;99.90;;;;;;5035131;28;20055;-41
2023/05/13 09:18:11;;;;;;;7.72;6.03;;;22.40;99.90;;;;;;5020069;28;20053;-42
2023/05/13 09:20:37;;;;;;;11.10;6.90;;;22.40;99.90;;;;;;5017794;28;20053;-50
2023/05/13 09:23:06;;;;;;;8.18;6.70;;;22.30;99.90;;;;;;5015087;28;20045;-48
2023/05/13 09:25:33;;;;;;;8.98;6.78;;;22.30;99.90;;;;;;5013737;28;20492;-55
2023/05/13 09:28:01;;;;;;;10.43;6.93;;;22.40;99.90;;;;;;5014772;28;20081;-45
2023/05/13 09:30:37;;;;;;;9.43;7.28;;;22.50;99.90;;;;;;5029583;28;20041;-49
2023/05/13 09:33:18;;;;;;;8.60;6.63;;;22.40;99.90;;;;;;5027206;28;20049;-52
2023/05/13 09:35:53;;;;;;;8.88;7.30;;;22.60;99.90;;;;;;5011817;28;20049;-47
2023/05/13 09:38:27;;;;;;;11.20;7.00;;;22.60;99.90;;;;;;5001435;28;20050;-48
2023/05/13 09:40:55;;;;;;;9.50;7.03;;;22.60;99.90;;;;;;5013526;28;20049;-47
2023/05/13 09:43:24;;;;;;;11.63;7.10;;;22.50;99.90;;;;;;5004455;28;20060;-51
2023/05/13 09:45:54;;;;;;;12.18;7.75;;;22.20;99.90;;;;;;5005563;28;20088;-43
2023/05/13 09:48:28;;;;;;;9.75;6.85;;;22.30;99.90;;;;;;5012519;28;20049;-42
2023/05/13 09:50:56;;;;;;;7.28;6.07;;;22.40;99.90;;;;;;5013136;28;20041;-51
2023/05/13 09:53:23;;;;;;;10.27;6.68;;;22.50;99.90;;;;;;5014488;28;20049;-51
2023/05/13 09:55:51;;;;;;;9.07;6.70;;;22.60;99.90;;;;;;5013036;28;20066;-48
2023/05/13 09:58:18;;;;;;;14.43;7.50;;;22.30;99.90;;;;;;5011908;28;20546;-48
2023/05/13 10:00:46;;;;;;;8.52;5.82;;;22.40;99.90;;;;;;5013373;28;20532;-41
2023/05/13 10:03:12;;;;;;;10.57;6.82;;;22.40;99.90;;;;;;5014925;28;20466;-44
2023/05/13 10:05:39;;;;;;;10.40;6.68;;;22.40;99.90;;;;;;5021136;28;20041;-50
2023/05/13 10:08:10;;;;;;;12.20;6.20;;;22.40;99.90;;;;;;5012614;28;20136;-43
2023/05/13 10:10:37;;;;;;;9.07;6.20;;;22.40;99.90;;;;;;5030654;28;20036;-44
2023/05/13 10:13:06;;;;;;;12.63;5.88;;;22.50;99.90;;;;;;5025127;28;20045;-50
2023/05/13 10:15:33;;;;;;;9.07;5.35;;;22.60;99.90;;;;;;5020655;28;20049;-52
2023/05/13 10:17:59;;;;;;;12.15;6.13;;;22.80;99.90;;;;;;5023405;28;20132;-51
2023/05/13 10:20:25;;;;;;;8.75;6.13;;;22.80;99.90;;;;;;5019621;28;20104;-40
2023/05/13 10:22:51;;;;;;;8.93;6.03;;;22.60;99.90;;;;;;5021348;28;20053;-45
2023/05/13 10:25:18;;;;;;;7.22;5.97;;;22.70;99.90;;;;;;5016846;28;20053;-51
2023/05/13 10:27:46;;;;;;;11.48;6.65;;;22.80;99.90;;;;;;5033767;28;20084;-48
2023/05/13 10:30:12;;;;;;;8.35;7.45;;;22.70;99.90;;;;;;5028257;28;20046;-41
2023/05/13 10:32:39;;;;;;;10.80;6.95;;;22.60;99.90;;;;;;5026547;28;20059;-54
2023/05/13 10:35:10;;;;;;;10.82;6.05;;;22.60;99.90;;;;;;5005085;28;20054;-51
2023/05/13 10:37:54;;;;;;;9.93;6.07;;;22.80;99.90;;;;;;5033960;28;20037;-45
2023/05/13 10:40:38;;;;;;;12.77;6.28;;;22.40;99.90;;;;;;5021765;28;20304;-41
2023/05/13 10:43:19;;;;;;;8.00;6.18;;;22.40;99.90;;;;;;5011808;28;20174;-48
2023/05/13 10:45:47;;;;;;;10.82;6.50;;;22.50;99.90;;;;;;5013367;28;20053;-41
2023/05/13 10:48:14;;;;;;;14.77;6.10;;;22.40;99.90;;;;;;5012807;28;20394;-54
2023/05/13 10:50:50;;;;;;;6.85;5.20;;;22.40;99.90;;;;;;5014009;28;20053;-46
2023/05/13 10:53:25;;;;;;;10.05;6.47;;;22.60;99.90;;;;;;5012019;28;20057;-43
2023/05/13 10:55:58;;;;;;;9.00;5.40;;;22.80;99.90;;;;;;5012820;28;20128;-38
2023/05/13 10:58:32;;;;;;;7.88;6.18;;;22.70;99.90;;;;;;5013854;28;20140;-49
2023/05/13 11:01:24;;;;;;;11.35;6.50;;;22.80;99.90;;;;;;5012306;28;20098;-41
2023/05/13 11:03:56;;;;;;;11.55;6.18;;;22.90;99.90;;;;;;5013732;28;20075;-48
2023/05/13 11:06:28;;;;;;;9.57;7.05;;;23.00;99.90;;;;;;5012533;28;20114;-54
2023/05/13 11:08:54;;;;;;;9.82;6.43;;;22.80;99.90;;;;;;5009065;28;20053;-48
2023/05/13 11:11:19;;;;;;;9.43;6.80;;;22.60;99.90;;;;;;5013747;28;20060;-47
2023/05/13 11:13:48;;;;;;;7.20;6.03;;;22.60;99.90;;;;;;5013611;28;20167;-44
2023/05/13 11:16:46;;;;;;;8.15;6.18;;;22.50;99.90;;;;;;5012108;28;20378;-44
2023/05/13 11:19:26;;;;;;;6.88;5.97;;;22.50;99.90;;;;;;5062989;28;20055;-37
2023/05/13 11:21:54;;;;;;;6.70;6.00;;;22.30;99.90;;;;;;5082255;28;20054;-43
2023/05/13 11:24:20;;;;;;;8.23;6.43;;;22.40;99.90;;;;;;5072870;28;20075;-49
2023/05/13 11:26:55;;;;;;;9.60;6.95;;;22.50;99.90;;;;;;5070787;28;20058;-52
2023/05/13 11:29:35;;;;;;;12.77;9.63;;;22.80;99.90;;;;;;5072003;28;20066;-41
2023/05/13 11:32:05;;;;;;;13.30;8.20;;;22.50;99.90;;;;;;5072583;28;20539;-44
2023/05/13 11:34:32;;;;;;;9.07;7.97;;;22.40;99.90;;;;;;5072013;28;20113;-46
2023/05/13 11:37:07;;;;;;;13.80;6.05;;;22.60;99.90;;;;;;5067045;28;20051;-44
2023/05/13 11:39:34;;;;;;;8.98;7.60;;;22.80;99.90;;;;;;5093452;28;20134;-49
2023/05/13 11:42:01;;;;;;;10.05;5.57;;;23.00;99.90;;;;;;5090152;28;20048;-42
2023/05/13 11:44:27;;;;;;;11.32;6.22;;;23.10;99.90;;;;;;5077202;28;20056;-45
2023/05/13 11:46:55;;;;;;;8.10;5.65;;;23.10;99.90;;;;;;5080316;28;20417;-42
2023/05/13 11:49:39;;;;;;;11.75;6.35;;;23.10;99.90;;;;;;5089568;28;20055;-50
2023/05/13 11:52:09;;;;;;;8.85;6.22;;;23.20;99.90;;;;;;5091093;28;20088;-49
2023/05/13 11:54:55;;;;;;;12.68;7.40;;;23.30;99.90;;;;;;5057853;28;20119;-49
2023/05/13 11:57:31;;;;;;;13.93;9.18;;;23.00;99.90;;;;;;5017222;28;20053;-49
2023/05/13 12:00:05;;;;;;;10.80;7.53;;;23.00;99.90;;;;;;5012838;28;20057;-45
2023/05/13 12:02:34;;;;;;;7.93;6.43;;;22.90;99.90;;;;;;5030263;28;20045;-41
2023/05/13 12:05:07;;;;;;;11.90;6.82;;;22.90;99.90;;;;;;5014858;28;20399;-41
2023/05/13 12:07:33;;;;;;;9.25;7.90;;;22.90;99.90;;;;;;5010124;28;20052;-45
2023/05/13 12:10:01;;;;;;;11.27;7.90;;;22.90;99.90;;;;;;5023773;28;20518;-47
2023/05/13 12:12:28;;;;;;;11.90;8.25;;;22.70;99.90;;;;;;5025943;28;20041;-40
2023/05/13 12:15:05;;;;;;;11.82;8.13;;;22.50;99.90;;;;;;5024249;28;20057;-41
2023/05/13 12:17:32;;;;;;;7.90;6.10;;;22.40;99.90;;;;;;5026057;28;20045;-43
2023/05/13 12:20:11;;;;;;;10.90;9.60;;;22.50;99.90;;;;;;5021247;28;20122;-42
2023/05/13 12:22:49;;;;;;;10.35;7.38;;;22.50;99.90;;;;;;5020990;28;20056;-48
2023/05/13 12:25:36;;;;;;;10.02;8.73;;;22.60;99.90;;;;;;5027637;28;20061;-45
2023/05/13 12:28:15;;;;;;;8.60;7.78;;;22.50;99.90;;;;;;5031550;28;20578;-51
2023/05/13 12:30:57;;;;;;;11.50;8.07;;;22.30;99.90;;;;;;5029336;28;20045;-41
2023/05/13 12:33:28;;;;;;;11.65;7.60;;;22.30;99.90;;;;;;5020080;28;20046;-49
2023/05/13 12:36:14;;;;;;;11.63;7.03;;;22.40;99.90;;;;;;5013924;28;20561;-48
2023/05/13 12:38:53;;;;;;;6.60;5.63;;;22.40;99.90;;;;;;5020680;28;20608;-45
2023/05/13 12:41:18;;;;;;;8.43;7.30;;;22.70;99.90;;;;;;5011231;28;20850;-47